Time;durP1;ratioP1;P1;durP2;ratioP2;P2;SDS_P1;SDS_P2;PMS_P1;PMS_P2;Temp;Humidity;BMP_temperature;BMP_pressure;BME280_temperature;BME280_humidity;BME280_pressure;Samples;Min_cycle;Max_cycle;Signal;HPM_P1;HPM_P2
2023/04/11 00:00:51;;;;;;;6.83;2.00;;;14.60;99.90;;;;;;5033452;28;20405;-55
2023/04/11 00:03:18;;;;;;;5.97;2.00;;;14.70;99.90;;;;;;5032797;28;20373;-55
2023/04/11 00:05:45;;;;;;;5.53;1.90;;;14.80;99.90;;;;;;5051105;28;20382;-54
2023/04/11 00:08:10;;;;;;;6.75;2.20;;;14.80;99.90;;;;;;5050514;28;20855;-55
2023/04/11 00:10:36;;;;;;;5.77;2.00;;;14.80;99.90;;;;;;5051431;28;20414;-54
2023/04/11 00:13:03;;;;;;;6.70;2.30;;;14.90;99.90;;;;;;5050935;28;20713;-55
2023/04/11 00:15:31;;;;;;;6.22;1.92;;;14.70;99.90;;;;;;5033480;28;20381;-54
2023/04/11 00:17:57;;;;;;;8.65;2.38;;;14.60;99.90;;;;;;5050396;28;20385;-55
2023/04/11 00:20:23;;;;;;;6.70;2.30;;;14.60;99.90;;;;;;5051160;28;20709;-54
2023/04/11 00:22:52;;;;;;;7.40;2.42;;;14.60;99.90;;;;;;5050874;28;20847;-54
2023/04/11 00:25:18;;;;;;;6.25;2.20;;;14.60;99.90;;;;;;5050571;28;20378;-54
2023/04/11 00:27:44;;;;;;;8.80;2.40;;;14.60;99.90;;;;;;5050558;28;20385;-54
2023/04/11 00:30:10;;;;;;;6.67;2.10;;;14.60;99.90;;;;;;5050135;28;20428;-54
2023/04/11 00:32:35;;;;;;;7.72;2.40;;;14.70;99.90;;;;;;5050702;28;20386;-55
2023/04/11 00:35:01;;;;;;;5.70;2.00;;;14.80;99.90;;;;;;5050381;28;20396;-55
2023/04/11 00:37:27;;;;;;;6.43;2.13;;;14.80;99.90;;;;;;5050697;28;20377;-54
2023/04/11 00:39:54;;;;;;;6.20;2.10;;;14.70;99.90;;;;;;5050707;28;20480;-54
2023/04/11 00:42:20;;;;;;;6.30;2.20;;;14.80;99.90;;;;;;5050484;28;20384;-54
2023/04/11 00:44:45;;;;;;;6.67;2.10;;;14.90;99.90;;;;;;5050965;28;20386;-54
2023/04/11 00:47:12;;;;;;;6.28;2.20;;;14.80;99.90;;;;;;5049683;28;20731;-54
2023/04/11 00:49:39;;;;;;;6.45;2.08;;;14.80;99.90;;;;;;5032768;28;20417;-55
2023/04/11 00:52:05;;;;;;;7.03;2.15;;;14.80;99.90;;;;;;5049669;28;20831;-55
2023/04/11 00:54:32;;;;;;;6.15;2.20;;;14.80;99.90;;;;;;5050457;28;20411;-55
2023/04/11 00:57:02;;;;;;;6.90;2.47;;;14.70;99.90;;;;;;5049947;28;20385;-55
2023/04/11 00:59:29;;;;;;;5.80;2.00;;;14.60;99.90;;;;;;5050311;28;20849;-55
2023/04/11 01:01:55;;;;;;;6.25;1.95;;;14.70;99.90;;;;;;5050146;28;20389;-54
2023/04/11 01:04:21;;;;;;;6.40;1.70;;;14.70;99.90;;;;;;5049902;28;20385;-54
2023/04/11 01:06:51;;;;;;;5.93;1.70;;;14.70;99.90;;;;;;5050143;28;20776;-54
2023/04/11 01:09:23;;;;;;;7.20;2.30;;;14.40;99.90;;;;;;5049361;28;21241;-54
2023/04/11 01:11:50;;;;;;;5.60;1.77;;;14.30;99.90;;;;;;5050295;28;20397;-54
2023/04/11 01:14:17;;;;;;;8.30;1.60;;;14.30;99.90;;;;;;5050205;28;20389;-54
2023/04/11 01:16:45;;;;;;;8.25;1.70;;;14.20;99.90;;;;;;5049821;28;20471;-54
2023/04/11 01:19:17;;;;;;;6.53;1.80;;;14.10;99.90;;;;;;5049173;28;20399;-54
2023/04/11 01:21:44;;;;;;;5.40;1.20;;;14.00;99.90;;;;;;5050267;28;20389;-54
2023/04/11 01:24:10;;;;;;;6.82;1.88;;;13.80;99.90;;;;;;5049338;28;20389;-54
2023/04/11 01:26:36;;;;;;;5.60;1.60;;;13.80;99.90;;;;;;5049954;28;20381;-54
2023/04/11 01:29:02;;;;;;;6.38;1.60;;;13.70;99.90;;;;;;5049101;28;20905;-54
2023/04/11 01:31:28;;;;;;;7.20;1.70;;;13.70;99.90;;;;;;5049839;28;20509;-54
2023/04/11 01:33:54;;;;;;;6.90;1.90;;;13.60;99.90;;;;;;5049593;28;20924;-54
2023/04/11 01:36:20;;;;;;;5.68;1.70;;;13.60;1.00;;;;;;5048870;28;20393;-54
2023/04/11 01:38:45;;;;;;;8.10;1.60;;;13.50;1.00;;;;;;5049588;28;20435;-54
2023/04/11 01:41:15;;;;;;;7.18;1.52;;;13.50;1.00;;;;;;5048922;28;20385;-54
2023/04/11 01:43:40;;;;;;;6.80;1.60;;;13.50;1.00;;;;;;5049826;28;20386;-55
2023/04/11 01:46:07;;;;;;;6.07;1.80;;;13.40;99.90;;;;;;5049251;28;20732;-55
2023/04/11 01:48:33;;;;;;;8.20;2.10;;;13.30;1.00;;;;;;5049681;28;20480;-54
2023/04/11 01:50:58;;;;;;;8.05;2.20;;;13.00;1.00;;;;;;5049370;28;20440;-55
2023/04/11 01:53:25;;;;;;;7.27;2.30;;;12.50;1.00;;;;;;5049364;28;20851;-54
2023/04/11 01:55:51;;;;;;;6.10;2.25;;;12.60;1.00;;;;;;5049618;28;20393;-54
2023/04/11 01:58:17;;;;;;;7.40;2.10;;;12.30;99.90;;;;;;5048898;28;20825;-54
2023/04/11 02:00:42;;;;;;;6.87;2.20;;;12.00;99.90;;;;;;5049756;28;20870;-54
2023/04/11 02:03:08;;;;;;;7.60;2.00;;;11.90;99.90;;;;;;5030642;28;20397;-55
2023/04/11 02:05:34;;;;;;;6.53;1.90;;;11.80;1.00;;;;;;5049458;28;20427;-54
2023/04/11 02:08:00;;;;;;;6.45;1.73;;;11.50;1.00;;;;;;5048691;28;20718;-54
2023/04/11 02:10:25;;;;;;;5.93;1.50;;;12.30;1.00;;;;;;5049930;28;20405;-54
2023/04/11 02:12:51;;;;;;;5.00;1.50;;;11.30;1.00;;;;;;5049639;28;20534;-54
2023/04/11 02:15:16;;;;;;;5.07;1.40;;;11.30;1.00;;;;;;5048665;28;20381;-54
2023/04/11 02:17:45;;;;;;;4.60;1.00;;;11.20;1.00;;;;;;5049538;28;20386;-54
2023/04/11 02:20:15;;;;;;;5.15;1.40;;;11.20;1.00;;;;;;5048992;28;20377;-54
2023/04/11 02:22:41;;;;;;;5.47;1.20;;;11.10;1.00;;;;;;5049618;28;20389;-54
2023/04/11 02:25:07;;;;;;;4.65;1.10;;;11.00;1.00;;;;;;5049018;28;20747;-54
2023/04/11 02:27:33;;;;;;;5.20;1.30;;;11.00;1.00;;;;;;5049741;28;20859;-54
2023/04/11 02:29:59;;;;;;;6.70;1.70;;;10.90;1.00;;;;;;5048808;28;20417;-55
2023/04/11 02:32:26;;;;;;;4.90;1.20;;;10.90;1.00;;;;;;5049409;28;20389;-54
2023/04/11 02:34:52;;;;;;;4.97;1.20;;;10.90;1.00;;;;;;5049467;28;20431;-55
2023/04/11 02:37:17;;;;;;;4.60;1.10;;;10.90;1.00;;;;;;5048689;28;20446;-54
2023/04/11 02:39:43;;;;;;;6.20;1.20;;;10.90;1.00;;;;;;5049299;28;20381;-54
2023/04/11 02:42:10;;;;;;;4.78;0.98;;;10.90;1.00;;;;;;5048764;28;20867;-54
2023/04/11 02:44:36;;;;;;;5.28;1.23;;;10.80;1.00;;;;;;5049416;28;20385;-54
2023/04/11 02:47:02;;;;;;;4.43;0.90;;;10.90;1.00;;;;;;5048978;28;20374;-54
2023/04/11 02:49:27;;;;;;;4.65;1.13;;;10.80;1.00;;;;;;5050736;28;20454;-54
2023/04/11 02:51:53;;;;;;;4.93;0.85;;;10.80;1.00;;;;;;5052610;28;20745;-54
2023/04/11 02:54:18;;;;;;;3.70;0.70;;;10.80;1.00;;;;;;5052085;28;20417;-54
2023/04/11 02:56:44;;;;;;;4.32;0.90;;;10.70;1.00;;;;;;5053214;28;20370;-55
2023/04/11 02:59:10;;;;;;;4.80;1.00;;;10.90;1.00;;;;;;5052075;28;20400;-55
2023/04/11 03:01:37;;;;;;;4.30;1.15;;;10.90;1.00;;;;;;5052715;28;20391;-54
2023/04/11 03:04:02;;;;;;;4.00;0.80;;;10.80;1.00;;;;;;5052059;28;20519;-54
2023/04/11 03:06:28;;;;;;;4.15;0.93;;;10.80;1.00;;;;;;5052581;28;20506;-54
2023/04/11 03:08:54;;;;;;;4.97;1.10;;;10.80;1.00;;;;;;5052705;28;20475;-54
2023/04/11 03:11:19;;;;;;;4.25;0.85;;;10.70;1.00;;;;;;5051611;28;21151;-55
2023/04/11 03:13:45;;;;;;;4.10;0.80;;;10.80;1.00;;;;;;5052436;28;20491;-55
2023/04/11 03:16:14;;;;;;;6.80;1.10;;;10.50;1.00;;;;;;5051655;28;20389;-55
2023/04/11 03:18:40;;;;;;;6.53;1.00;;;10.40;1.00;;;;;;5052734;28;20405;-54
2023/04/11 03:21:09;;;;;;;4.30;0.80;;;10.50;1.00;;;;;;5051417;28;20406;-55
2023/04/11 03:23:36;;;;;;;6.15;0.80;;;10.40;1.00;;;;;;5052145;28;20877;-54
2023/04/11 03:26:02;;;;;;;3.92;0.82;;;10.40;1.00;;;;;;5033549;28;20390;-54
2023/04/11 03:28:28;;;;;;;5.20;0.90;;;10.80;1.00;;;;;;5051974;28;20429;-54
2023/04/11 03:30:53;;;;;;;4.00;0.70;;;10.20;1.00;;;;;;5051755;28;20501;-54
2023/04/11 03:33:20;;;;;;;4.40;0.70;;;10.10;1.00;;;;;;5051427;28;20387;-54
2023/04/11 03:35:45;;;;;;;4.68;0.80;;;10.00;1.00;;;;;;5051907;28;20374;-54
2023/04/11 03:38:11;;;;;;;5.10;1.30;;;9.90;1.00;;;;;;5050947;28;20443;-54
2023/04/11 03:40:38;;;;;;;4.47;0.80;;;9.90;1.00;;;;;;5052101;28;20384;-54
2023/04/11 03:43:03;;;;;;;6.13;0.90;;;9.90;1.00;;;;;;5050785;28;20909;-54
2023/04/11 03:45:29;;;;;;;4.93;0.68;;;9.80;1.00;;;;;;5052041;28;20405;-54
2023/04/11 03:47:55;;;;;;;6.63;0.90;;;9.80;1.00;;;;;;5051692;28;20388;-54
2023/04/11 03:50:20;;;;;;;5.83;0.90;;;11.10;1.00;;;;;;5050760;28;20419;-54
2023/04/11 03:52:46;;;;;;;5.25;0.90;;;11.80;1.00;;;;;;5051803;28;20389;-54
2023/04/11 03:55:11;;;;;;;4.13;0.80;;;9.90;1.00;;;;;;5050811;28;20377;-54
2023/04/11 03:57:37;;;;;;;4.10;0.60;;;9.90;1.00;;;;;;5051441;28;20381;-54
2023/04/11 04:00:06;;;;;;;5.50;0.80;;;9.90;1.00;;;;;;5032605;28;20626;-54
2023/04/11 04:02:32;;;;;;;4.60;1.20;;;9.80;1.00;;;;;;5051690;28;20846;-54
2023/04/11 04:04:58;;;;;;;4.10;0.73;;;9.80;1.00;;;;;;5051382;28;20378;-54
2023/04/11 04:07:27;;;;;;;5.88;1.05;;;9.50;1.00;;;;;;5051405;28;20731;-54
2023/04/11 04:09:53;;;;;;;6.30;0.80;;;9.90;1.00;;;;;;5051470;28;20432;-54
2023/04/11 04:12:22;;;;;;;5.95;1.15;;;9.90;1.00;;;;;;5050670;28;20394;-54
2023/04/11 04:14:47;;;;;;;4.82;0.55;;;10.40;1.00;;;;;;5051241;28;20459;-54
2023/04/11 04:17:14;;;;;;;7.50;1.00;;;9.90;1.00;;;;;;5050736;28;20425;-54
2023/04/11 04:19:41;;;;;;;4.25;0.90;;;9.90;1.00;;;;;;5050906;28;20373;-54
2023/04/11 04:22:10;;;;;;;5.20;0.88;;;9.80;1.00;;;;;;5050199;28;20402;-54
2023/04/11 04:24:38;;;;;;;6.20;1.00;;;9.70;1.00;;;;;;5050909;28;20416;-54
2023/04/11 04:27:07;;;;;;;8.20;0.90;;;9.60;1.00;;;;;;5050545;28;20385;-55
2023/04/11 04:29:45;;;;;;;7.47;0.90;;;9.60;1.00;;;;;;5050667;28;20414;-54
2023/04/11 04:32:19;;;;;;;6.90;0.90;;;9.60;1.00;;;;;;5049984;28;20472;-54
2023/04/11 04:34:48;;;;;;;6.25;1.17;;;9.60;1.00;;;;;;5050871;28;20374;-54
2023/04/11 04:37:21;;;;;;;4.70;0.50;;;9.50;1.00;;;;;;5050184;28;20826;-54
2023/04/11 04:39:55;;;;;;;6.55;1.02;;;9.50;1.00;;;;;;5050970;28;20374;-54
2023/04/11 04:42:22;;;;;;;7.40;1.10;;;10.50;1.00;;;;;;5050085;28;20378;-54
2023/04/11 04:44:48;;;;;;;5.27;0.73;;;9.50;1.00;;;;;;5050440;28;20477;-54
2023/04/11 04:47:14;;;;;;;3.67;0.40;;;9.40;1.00;;;;;;5049913;28;20416;-54
2023/04/11 04:49:40;;;;;;;4.20;0.73;;;9.40;1.00;;;;;;5050653;28;20432;-54
2023/04/11 04:52:06;;;;;;;4.50;0.60;;;9.30;1.00;;;;;;5049863;28;20507;-54
2023/04/11 04:54:32;;;;;;;5.50;0.90;;;9.30;1.00;;;;;;5050920;28;20763;-54
2023/04/11 04:56:57;;;;;;;3.60;0.47;;;9.30;1.00;;;;;;5050536;28;20428;-54
2023/04/11 04:59:23;;;;;;;4.10;0.60;;;9.20;1.00;;;;;;5031616;28;20443;-54
2023/04/11 05:01:52;;;;;;;4.03;0.40;;;9.10;1.00;;;;;;5050367;28;20394;-54
2023/04/11 05:04:18;;;;;;;4.10;0.70;;;9.10;1.00;;;;;;5049726;28;20431;-54
2023/04/11 05:06:44;;;;;;;4.20;0.73;;;9.10;1.00;;;;;;5050142;28;20370;-54
2023/04/11 05:09:09;;;;;;;4.80;0.82;;;9.00;1.00;;;;;;5049470;28;20446;-54
2023/04/11 05:11:35;;;;;;;4.20;0.80;;;9.00;1.00;;;;;;5049399;28;20926;-54
2023/04/11 05:14:01;;;;;;;5.00;0.50;;;8.90;1.00;;;;;;5049539;28;20394;-57
2023/04/11 05:16:26;;;;;;;4.00;0.50;;;8.80;1.00;;;;;;5050232;28;20740;-54
2023/04/11 05:18:52;;;;;;;3.80;0.40;;;10.40;1.00;;;;;;5050351;28;20397;-54
2023/04/11 05:21:17;;;;;;;3.70;0.60;;;8.70;99.90;;;;;;5049633;28;20483;-54
2023/04/11 05:23:43;;;;;;;5.30;0.60;;;8.70;99.90;;;;;;5049876;28;20381;-54
2023/04/11 05:26:10;;;;;;;4.70;0.60;;;8.80;1.00;;;;;;5049238;28;20389;-54
2023/04/11 05:28:36;;;;;;;5.50;0.47;;;8.80;1.00;;;;;;5049578;28;20401;-54
2023/04/11 05:31:03;;;;;;;4.30;0.60;;;8.60;1.00;;;;;;5048733;28;20536;-54
2023/04/11 05:33:30;;;;;;;3.70;0.50;;;8.60;1.00;;;;;;5049719;28;20480;-54
2023/04/11 05:35:55;;;;;;;7.10;0.60;;;8.70;1.00;;;;;;5049467;28;20392;-54
2023/04/11 05:38:21;;;;;;;3.80;0.30;;;8.60;1.00;;;;;;5049554;28;20377;-54
2023/04/11 05:40:47;;;;;;;5.03;0.73;;;8.50;99.90;;;;;;5049927;28;20758;-54
2023/04/11 05:43:13;;;;;;;5.30;0.70;;;8.50;99.90;;;;;;5049247;28;20902;-54
2023/04/11 05:45:46;;;;;;;5.63;0.57;;;8.50;99.90;;;;;;5050064;28;20396;-54
2023/04/11 05:48:14;;;;;;;4.28;0.50;;;8.70;99.90;;;;;;5049063;28;20374;-54
2023/04/11 05:50:40;;;;;;;5.38;0.90;;;9.20;99.90;;;;;;5049584;28;20496;-54
2023/04/11 05:53:06;;;;;;;4.38;0.60;;;8.60;99.90;;;;;;5048991;28;20461;-54
2023/04/11 05:55:31;;;;;;;4.77;0.60;;;8.80;99.90;;;;;;5049619;28;20866;-54
2023/04/11 05:57:57;;;;;;;5.90;0.70;;;8.80;99.90;;;;;;5049460;28;20385;-54
2023/04/11 06:00:24;;;;;;;3.80;0.50;;;8.80;99.90;;;;;;5049126;28;20870;-54
2023/04/11 06:02:51;;;;;;;4.47;0.90;;;8.80;99.90;;;;;;5049387;28;20373;-54
2023/04/11 06:05:17;;;;;;;6.57;0.80;;;8.70;99.90;;;;;;5058047;28;20904;-54
2023/04/11 06:07:43;;;;;;;6.00;0.80;;;8.80;99.90;;;;;;5070139;28;20437;-54
2023/04/11 06:10:10;;;;;;;4.97;0.80;;;8.70;68.60;;;;;;5068223;28;20447;-55
2023/04/11 06:12:35;;;;;;;5.70;0.60;;;9.50;99.90;;;;;;5051543;28;20879;-55
2023/04/11 06:15:01;;;;;;;5.20;1.37;;;8.70;99.90;;;;;;5069329;28;20467;-57
2023/04/11 06:17:27;;;;;;;7.50;0.80;;;8.70;83.50;;;;;;5068905;28;20379;-55
2023/04/11 06:19:52;;;;;;;6.50;0.95;;;8.80;1.00;;;;;;5069310;28;20714;-55
2023/04/11 06:22:18;;;;;;;4.20;0.80;;;8.80;1.00;;;;;;5068785;28;20729;-55
2023/04/11 06:24:44;;;;;;;4.50;0.70;;;8.90;1.00;;;;;;5073333;28;20370;-55
2023/04/11 06:27:10;;;;;;;4.45;0.50;;;9.00;1.00;;;;;;5072617;28;20934;-55
2023/04/11 06:29:42;;;;;;;5.45;0.80;;;9.00;99.90;;;;;;5072833;28;20896;-55
2023/04/11 06:32:10;;;;;;;7.30;0.80;;;9.10;99.90;;;;;;5072404;28;20392;-55
2023/04/11 06:34:35;;;;;;;4.10;0.60;;;9.10;99.90;;;;;;5072961;28;20394;-55
2023/04/11 06:37:01;;;;;;;5.07;0.70;;;9.00;1.00;;;;;;5072611;28;20372;-54
2023/04/11 06:39:26;;;;;;;4.40;0.73;;;9.00;1.00;;;;;;5072353;28;20437;-55
2023/04/11 06:41:52;;;;;;;5.38;1.00;;;9.00;1.00;;;;;;5072710;28;20486;-55
2023/04/11 06:44:18;;;;;;;4.40;0.57;;;9.20;1.00;;;;;;5072423;28;20444;-55
2023/04/11 06:46:44;;;;;;;5.40;0.65;;;9.10;54.90;;;;;;5073035;28;20415;-55
2023/04/11 06:49:10;;;;;;;4.90;0.70;;;9.20;99.90;;;;;;5071925;28;20861;-55
2023/04/11 06:51:36;;;;;;;4.20;0.80;;;9.40;99.90;;;;;;5072288;28;20924;-55
2023/04/11 06:54:02;;;;;;;4.80;0.93;;;9.50;1.00;;;;;;5072454;28;20411;-55
2023/04/11 06:56:28;;;;;;;5.50;1.40;;;9.10;99.90;;;;;;5072055;28;20388;-55
2023/04/11 06:58:54;;;;;;;4.90;1.10;;;9.10;99.90;;;;;;5072786;28;20753;-55
2023/04/11 07:01:32;;;;;;;4.25;0.65;;;9.10;99.90;;;;;;5071566;28;20394;-55
2023/04/11 07:03:59;;;;;;;4.70;1.00;;;9.10;99.90;;;;;;5072454;28;20885;-55
2023/04/11 07:06:25;;;;;;;6.17;0.87;;;9.10;99.90;;;;;;5071864;28;20388;-55
2023/04/11 07:08:51;;;;;;;6.25;1.20;;;10.30;99.90;;;;;;5072733;28;20379;-57
2023/04/11 07:11:17;;;;;;;4.40;1.00;;;9.50;63.20;;;;;;5071178;28;20521;-57
2023/04/11 07:13:43;;;;;;;8.18;0.98;;;10.60;67.10;;;;;;5072004;28;20415;-57
2023/04/11 07:16:09;;;;;;;5.40;0.80;;;9.50;99.90;;;;;;5071183;28;20804;-58
2023/04/11 07:18:35;;;;;;;4.83;0.90;;;9.50;99.90;;;;;;5072382;28;20384;-57
2023/04/11 07:21:00;;;;;;;4.90;0.80;;;9.60;99.90;;;;;;5072168;28;20384;-58
2023/04/11 07:23:26;;;;;;;7.27;1.10;;;9.60;1.00;;;;;;5071674;28;20959;-57
2023/04/11 07:25:53;;;;;;;5.82;1.27;;;9.90;99.90;;;;;;5071874;28;20398;-58
2023/04/11 07:28:20;;;;;;;4.30;0.90;;;9.80;99.90;;;;;;5071246;28;20408;-58
2023/04/11 07:30:46;;;;;;;4.70;0.70;;;9.90;1.00;;;;;;5071939;28;20419;-57
2023/04/11 07:33:12;;;;;;;5.65;0.90;;;10.00;99.90;;;;;;5071340;28;20380;-58
2023/04/11 07:35:37;;;;;;;6.68;1.05;;;10.00;1.00;;;;;;5071895;28;20379;-58
2023/04/11 07:38:03;;;;;;;5.87;1.20;;;10.00;99.90;;;;;;5071574;28;20817;-58
2023/04/11 07:40:30;;;;;;;5.00;0.93;;;10.10;99.90;;;;;;5071638;28;20383;-58
2023/04/11 07:42:55;;;;;;;6.80;1.00;;;10.30;1.00;;;;;;5072010;28;20918;-57
2023/04/11 07:45:21;;;;;;;6.97;0.80;;;10.50;1.00;;;;;;5071282;28;20371;-55
2023/04/11 07:47:47;;;;;;;6.28;1.10;;;10.70;1.00;;;;;;5071699;28;20429;-55
2023/04/11 07:50:13;;;;;;;7.60;0.85;;;11.30;99.90;;;;;;5069748;28;20819;-55
2023/04/11 07:52:38;;;;;;;6.33;1.20;;;11.40;1.00;;;;;;5071419;28;20426;-55
2023/04/11 07:55:04;;;;;;;7.53;1.40;;;11.20;99.90;;;;;;5071452;28;20368;-55
2023/04/11 07:57:30;;;;;;;4.70;0.80;;;11.40;99.90;;;;;;5071503;28;20919;-55
2023/04/11 07:59:58;;;;;;;7.35;1.00;;;11.90;99.90;;;;;;5071484;28;20387;-55
2023/04/11 08:02:24;;;;;;;5.28;1.20;;;11.90;99.90;;;;;;5070523;28;20408;-55
2023/04/11 08:04:49;;;;;;;5.00;1.20;;;11.80;50.30;;;;;;5071728;28;20423;-55
2023/04/11 08:07:15;;;;;;;6.63;1.30;;;11.90;55.50;;;;;;5070544;28;20384;-55
2023/04/11 08:09:41;;;;;;;4.80;0.90;;;12.00;1.00;;;;;;5071700;28;20383;-55
2023/04/11 08:12:07;;;;;;;6.60;0.90;;;11.70;1.00;;;;;;5070894;28;20437;-55
2023/04/11 08:14:33;;;;;;;9.07;1.00;;;11.20;1.00;;;;;;5071310;28;20392;-55
2023/04/11 08:16:59;;;;;;;7.57;1.15;;;11.10;20.70;;;;;;5071445;28;20392;-55
2023/04/11 08:19:25;;;;;;;5.13;1.13;;;11.20;1.00;;;;;;5070621;28;20376;-55
2023/04/11 08:21:51;;;;;;;6.10;1.38;;;11.50;1.00;;;;;;5071248;28;20399;-55
2023/04/11 08:24:17;;;;;;;6.20;1.03;;;11.80;1.00;;;;;;5070055;28;20384;-55
2023/04/11 08:26:43;;;;;;;8.23;1.30;;;11.90;1.00;;;;;;5071147;28;20849;-55
2023/04/11 08:29:10;;;;;;;5.80;0.93;;;11.90;1.00;;;;;;5069806;28;20408;-55
2023/04/11 08:31:36;;;;;;;4.43;0.70;;;11.80;1.00;;;;;;5070705;28;20534;-55
2023/04/11 08:34:02;;;;;;;5.60;0.90;;;11.80;1.00;;;;;;5071138;28;20859;-55
2023/04/11 08:36:28;;;;;;;6.63;1.25;;;11.50;1.00;;;;;;5070009;28;20387;-55
2023/04/11 08:38:55;;;;;;;5.80;0.77;;;11.50;1.00;;;;;;5070375;28;20745;-55
2023/04/11 08:41:21;;;;;;;5.90;1.00;;;12.00;1.00;;;;;;5069591;28;20388;-55
2023/04/11 08:43:48;;;;;;;5.75;1.20;;;12.10;1.00;;;;;;5070357;28;20368;-55
2023/04/11 08:46:15;;;;;;;6.20;0.90;;;12.70;1.00;;;;;;5069376;28;20836;-55
2023/04/11 08:48:40;;;;;;;7.83;1.33;;;12.60;1.00;;;;;;5070642;28;20458;-55
2023/04/11 08:51:06;;;;;;;12.00;1.20;;;12.40;1.00;;;;;;5069895;28;20483;-55
2023/04/11 08:53:35;;;;;;;5.87;0.90;;;12.60;1.00;;;;;;5070210;28;20735;-55
2023/04/11 08:56:02;;;;;;;5.95;1.20;;;12.70;1.00;;;;;;5070909;28;20463;-55
2023/04/11 08:58:28;;;;;;;6.50;0.90;;;12.90;1.00;;;;;;5069937;28;20388;-55
2023/04/11 09:00:53;;;;;;;7.20;0.80;;;13.00;1.00;;;;;;5070501;28;20398;-55
2023/04/11 09:03:19;;;;;;;5.30;1.07;;;13.20;1.00;;;;;;5069667;28;20388;-55
2023/04/11 09:05:45;;;;;;;6.35;1.13;;;13.80;1.00;;;;;;5071106;28;20868;-55
2023/04/11 09:08:15;;;;;;;6.80;1.10;;;13.10;99.90;;;;;;5069631;28;20388;-55
2023/04/11 09:10:44;;;;;;;6.13;1.20;;;13.10;99.90;;;;;;5070189;28;20730;-55
2023/04/11 09:13:27;;;;;;;6.57;0.87;;;13.10;99.90;;;;;;5069217;28;20474;-55
2023/04/11 09:16:12;;;;;;;5.28;0.80;;;12.30;99.90;;;;;;5070193;28;20413;-55
2023/04/11 09:18:39;;;;;;;6.90;0.80;;;11.90;99.90;;;;;;5070390;28;20519;-55
2023/04/11 09:21:10;;;;;;;8.40;0.90;;;11.40;99.90;;;;;;5069810;28;20391;-55
2023/04/11 09:23:36;;;;;;;7.00;0.90;;;11.50;99.90;;;;;;5069857;28;20857;-55
2023/04/11 09:26:08;;;;;;;6.70;1.00;;;12.50;99.90;;;;;;5070272;28;20479;-55
2023/04/11 09:28:49;;;;;;;9.00;1.60;;;13.70;99.90;;;;;;5069692;28;20802;-55
2023/04/11 09:31:15;;;;;;;5.45;1.30;;;14.80;99.90;;;;;;5068974;28;20430;-55
2023/04/11 09:33:52;;;;;;;7.50;0.95;;;13.80;99.90;;;;;;5070011;28;20384;-56
2023/04/11 09:36:20;;;;;;;4.70;0.80;;;13.10;99.90;;;;;;5069559;28;20423;-55
2023/04/11 09:38:46;;;;;;;11.50;1.60;;;12.90;99.90;;;;;;5070022;28;20373;-55
2023/04/11 09:41:12;;;;;;;6.30;1.00;;;12.40;99.90;;;;;;5069592;28;20386;-55
2023/04/11 09:43:58;;;;;;;6.45;1.20;;;12.90;99.90;;;;;;5070065;28;20380;-55
2023/04/11 09:46:24;;;;;;;8.10;1.40;;;13.90;99.90;;;;;;5069250;28;20750;-55
2023/04/11 09:48:51;;;;;;;7.17;1.60;;;14.10;99.90;;;;;;5069385;28;20861;-55
2023/04/11 09:51:18;;;;;;;7.82;1.00;;;13.70;99.90;;;;;;5068914;28;20403;-55
2023/04/11 09:53:44;;;;;;;5.13;1.10;;;13.80;99.90;;;;;;5070038;28;20379;-55
2023/04/11 09:56:10;;;;;;;6.00;1.00;;;14.20;99.90;;;;;;5068684;28;20726;-55
2023/04/11 09:58:38;;;;;;;5.70;0.85;;;14.40;99.90;;;;;;5071719;28;20394;-55
2023/04/11 10:01:09;;;;;;;6.17;1.40;;;13.90;99.90;;;;;;5074015;28;20850;-55
2023/04/11 10:03:37;;;;;;;7.90;1.10;;;14.10;99.90;;;;;;5073920;28;20970;-55
2023/04/11 10:06:25;;;;;;;6.47;1.20;;;13.00;99.90;;;;;;5073744;28;20464;-55
2023/04/11 10:08:51;;;;;;;5.68;0.65;;;12.80;99.90;;;;;;5059751;28;20518;-55
2023/04/11 10:11:19;;;;;;;5.90;0.80;;;12.70;99.90;;;;;;5073050;28;20407;-55
2023/04/11 10:13:46;;;;;;;4.45;0.60;;;12.40;99.90;;;;;;5073463;28;20434;-55
2023/04/11 10:16:17;;;;;;;6.72;0.90;;;12.40;99.90;;;;;;5072964;28;20393;-54
2023/04/11 10:18:51;;;;;;;4.60;0.70;;;12.50;99.90;;;;;;5073630;28;20387;-55
2023/04/11 10:21:29;;;;;;;5.00;0.80;;;12.50;99.90;;;;;;5073065;28;20853;-54
2023/04/11 10:24:15;;;;;;;6.23;0.90;;;12.40;99.90;;;;;;5073463;28;20438;-54
2023/04/11 10:26:58;;;;;;;6.40;0.90;;;12.20;99.90;;;;;;5073518;28;20388;-54
2023/04/11 10:32:14;;;;;;;4.60;0.70;;;12.90;99.90;;;;;;5073503;28;20415;-54
2023/04/11 10:35:00;;;;;;;7.07;0.93;;;13.10;99.90;;;;;;5073234;28;20392;-54
2023/04/11 10:37:35;;;;;;;8.27;1.10;;;13.30;99.90;;;;;;5058406;28;20768;-56
2023/04/11 10:40:05;;;;;;;5.85;0.80;;;13.10;99.90;;;;;;5072946;28;20387;-56
2023/04/11 10:42:37;;;;;;;6.05;0.80;;;13.30;99.90;;;;;;5071952;28;20417;-56
2023/04/11 10:45:18;;;;;;;7.70;0.80;;;13.00;99.90;;;;;;5072794;28;20392;-56
2023/04/11 10:47:56;;;;;;;6.40;1.00;;;13.40;99.90;;;;;;5072921;28;20382;-56
2023/04/11 10:50:24;;;;;;;6.68;1.20;;;13.60;99.90;;;;;;5072191;28;20403;-56
2023/04/11 10:53:00;;;;;;;6.30;1.00;;;14.20;99.90;;;;;;5072644;28;20772;-56
2023/04/11 10:55:27;;;;;;;5.10;0.90;;;14.40;99.90;;;;;;5072160;28;20415;-56
2023/04/11 10:58:12;;;;;;;9.02;1.10;;;13.90;99.90;;;;;;5072693;28;20391;-56
2023/04/11 11:00:53;;;;;;;5.05;0.90;;;13.90;99.90;;;;;;5073036;28;20384;-56
2023/04/11 11:03:29;;;;;;;5.70;1.10;;;13.80;99.90;;;;;;5071908;28;20921;-56
2023/04/11 11:06:06;;;;;;;5.20;0.80;;;13.80;99.90;;;;;;5073299;28;20825;-56
2023/04/11 11:08:40;;;;;;;7.55;0.68;;;14.10;99.90;;;;;;5072457;28;20388;-56
2023/04/11 11:11:09;;;;;;;8.43;0.95;;;14.20;99.90;;;;;;5071021;28;20464;-56
2023/04/11 11:13:46;;;;;;;5.80;0.60;;;14.00;99.90;;;;;;5072217;28;20437;-54
2023/04/11 11:16:19;;;;;;;6.72;0.70;;;14.60;99.90;;;;;;5071773;28;20387;-54
2023/04/11 11:18:51;;;;;;;5.10;0.70;;;14.80;99.90;;;;;;5072619;28;20429;-54
2023/04/11 11:21:23;;;;;;;6.95;1.10;;;14.60;99.90;;;;;;5072073;28;20404;-56
2023/04/11 11:24:02;;;;;;;5.80;0.60;;;14.30;99.90;;;;;;5072738;28;20775;-56
2023/04/11 11:26:42;;;;;;;6.90;0.80;;;14.10;99.90;;;;;;5071575;28;20375;-57
2023/04/11 11:29:08;;;;;;;5.88;0.80;;;14.30;99.90;;;;;;5071659;28;20605;-54
2023/04/11 11:31:45;;;;;;;5.80;0.60;;;14.60;99.90;;;;;;5071765;28;20400;-54
2023/04/11 11:34:11;;;;;;;7.60;1.30;;;14.60;99.90;;;;;;5071825;28;20403;-54
2023/04/11 11:36:45;;;;;;;5.65;1.00;;;14.20;99.90;;;;;;5072384;28;20410;-54
2023/04/11 11:39:12;;;;;;;7.90;1.50;;;14.20;99.90;;;;;;5071396;28;20402;-55
2023/04/11 11:41:39;;;;;;;4.95;0.90;;;14.50;99.90;;;;;;5071628;28;20387;-54
2023/04/11 11:44:05;;;;;;;5.78;1.02;;;14.50;99.90;;;;;;5071852;28;20891;-54
2023/04/11 11:46:34;;;;;;;4.80;0.50;;;14.80;99.90;;;;;;5071020;28;20380;-54
2023/04/11 11:49:05;;;;;;;6.35;1.00;;;15.00;99.90;;;;;;5071594;28;20399;-54
2023/04/11 11:51:42;;;;;;;6.18;1.00;;;14.90;99.90;;;;;;5070792;28;20411;-54
2023/04/11 11:54:09;;;;;;;7.50;1.20;;;14.70;99.90;;;;;;5071208;28;20395;-55
2023/04/11 11:56:39;;;;;;;6.72;1.33;;;14.60;99.90;;;;;;5071812;28;20905;-54
2023/04/11 11:59:05;;;;;;;5.22;0.88;;;14.50;99.90;;;;;;5071266;28;20400;-54
2023/04/11 12:01:32;;;;;;;7.38;2.10;;;14.40;99.90;;;;;;5070871;28;20392;-56
2023/04/11 12:03:59;;;;;;;6.80;1.00;;;14.20;99.90;;;;;;5071223;28;20382;-56
2023/04/11 12:06:30;;;;;;;6.73;1.10;;;14.20;99.90;;;;;;5070726;28;20405;-54
2023/04/11 12:09:09;;;;;;;5.70;1.10;;;14.30;99.90;;;;;;5071262;28;20415;-56
2023/04/11 12:11:39;;;;;;;10.20;1.30;;;14.20;99.90;;;;;;5071410;28;20415;-56
2023/04/11 12:14:05;;;;;;;5.25;0.98;;;13.90;99.90;;;;;;5070893;28;20875;-56
2023/04/11 12:16:31;;;;;;;5.80;0.80;;;14.10;99.90;;;;;;5070799;28;20372;-56
2023/04/11 12:19:02;;;;;;;9.63;1.30;;;13.90;99.90;;;;;;5071288;28;20415;-56
2023/04/11 12:21:28;;;;;;;5.03;0.60;;;14.00;99.90;;;;;;5069956;28;20387;-56
2023/04/11 12:23:54;;;;;;;5.20;0.80;;;13.90;99.90;;;;;;5070826;28;20388;-56
2023/04/11 12:26:20;;;;;;;5.63;0.90;;;14.20;99.90;;;;;;5070324;28;20407;-54
2023/04/11 12:28:47;;;;;;;6.90;1.20;;;14.20;99.90;;;;;;5070594;28;20419;-54
2023/04/11 12:31:13;;;;;;;5.35;0.80;;;14.70;99.90;;;;;;5069824;28;20417;-54
2023/04/11 12:33:39;;;;;;;21.42;1.20;;;14.60;99.90;;;;;;5070724;28;20464;-54
2023/04/11 12:36:06;;;;;;;4.60;0.70;;;14.20;99.90;;;;;;5070813;28;20852;-54
2023/04/11 12:38:32;;;;;;;5.22;1.00;;;13.80;99.90;;;;;;5069886;28;20898;-54
2023/04/11 12:40:58;;;;;;;7.32;1.10;;;13.60;99.90;;;;;;5070702;28;20470;-54
2023/04/11 12:43:24;;;;;;;6.90;0.95;;;13.60;99.90;;;;;;5070099;28;20785;-53
2023/04/11 12:45:50;;;;;;;6.40;1.00;;;13.50;99.90;;;;;;5070531;28;20383;-54
2023/04/11 12:48:16;;;;;;;5.07;0.70;;;13.60;99.90;;;;;;5070413;28;20429;-54
2023/04/11 12:50:41;;;;;;;6.75;1.00;;;13.90;99.90;;;;;;5070121;28;20730;-56
2023/04/11 12:53:07;;;;;;;5.10;0.60;;;13.80;99.90;;;;;;5070443;28;20514;-56
2023/04/11 12:55:32;;;;;;;5.00;0.80;;;13.60;99.90;;;;;;5069921;28;20387;-54
2023/04/11 12:58:00;;;;;;;6.57;0.95;;;13.70;99.90;;;;;;5052185;28;20493;-54